sensor_id;sensor_type;location;lat;lon;timestamp;P1;durP1;ratioP1;P2;durP2;ratioP2
24961;SDS011;12992;50.884;13.668;2022-08-25T00:01:26;20.65;;;14.23;;
24961;SDS011;12992;50.884;13.668;2022-08-25T00:03:55;17.20;;;13.85;;
24961;SDS011;12992;50.884;13.668;2022-08-25T00:06:21;20.67;;;13.77;;
24961;SDS011;12992;50.884;13.668;2022-08-25T00:08:46;20.58;;;14.90;;
24961;SDS011;12992;50.884;13.668;2022-08-25T00:11:14;23.65;;;14.90;;
24961;SDS011;12992;50.884;13.668;2022-08-25T00:13:43;19.85;;;13.43;;
24961;SDS011;12992;50.884;13.668;2022-08-25T00:16:12;17.95;;;13.00;;
24961;SDS011;12992;50.884;13.668;2022-08-25T00:18:39;20.42;;;12.48;;
24961;SDS011;12992;50.884;13.668;2022-08-25T00:21:06;19.15;;;12.85;;
24961;SDS011;12992;50.884;13.668;2022-08-25T00:23:33;20.45;;;12.75;;
24961;SDS011;12992;50.884;13.668;2022-08-25T00:25:58;17.00;;;12.45;;
24961;SDS011;12992;50.884;13.668;2022-08-25T00:28:25;18.45;;;12.93;;
24961;SDS011;12992;50.884;13.668;2022-08-25T00:30:50;19.52;;;13.13;;
24961;SDS011;12992;50.884;13.668;2022-08-25T00:33:16;17.90;;;12.25;;
24961;SDS011;12992;50.884;13.668;2022-08-25T00:35:42;22.98;;;13.13;;
24961;SDS011;12992;50.884;13.668;2022-08-25T00:38:09;22.95;;;12.85;;
24961;SDS011;12992;50.884;13.668;2022-08-25T00:40:36;19.60;;;13.07;;
24961;SDS011;12992;50.884;13.668;2022-08-25T00:43:03;16.33;;;12.75;;
24961;SDS011;12992;50.884;13.668;2022-08-25T00:45:30;17.67;;;12.68;;
24961;SDS011;12992;50.884;13.668;2022-08-25T00:47:56;19.70;;;13.20;;
24961;SDS011;12992;50.884;13.668;2022-08-25T00:50:21;21.23;;;13.05;;
24961;SDS011;12992;50.884;13.668;2022-08-25T00:52:48;28.05;;;13.77;;
24961;SDS011;12992;50.884;13.668;2022-08-25T00:55:17;20.63;;;13.48;;
24961;SDS011;12992;50.884;13.668;2022-08-25T00:57:57;16.85;;;12.93;;
24961;SDS011;12992;50.884;13.668;2022-08-25T01:00:28;19.23;;;13.45;;
24961;SDS011;12992;50.884;13.668;2022-08-25T01:02:56;21.13;;;13.43;;
24961;SDS011;12992;50.884;13.668;2022-08-25T01:05:22;19.15;;;12.98;;
24961;SDS011;12992;50.884;13.668;2022-08-25T01:07:48;17.70;;;13.52;;
24961;SDS011;12992;50.884;13.668;2022-08-25T01:10:15;19.23;;;13.68;;
24961;SDS011;12992;50.884;13.668;2022-08-25T01:12:41;20.52;;;13.57;;
24961;SDS011;12992;50.884;13.668;2022-08-25T01:15:08;19.08;;;13.88;;
24961;SDS011;12992;50.884;13.668;2022-08-25T01:17:38;15.45;;;12.88;;
24961;SDS011;12992;50.884;13.668;2022-08-25T01:20:10;20.52;;;13.40;;
24961;SDS011;12992;50.884;13.668;2022-08-25T01:22:36;19.40;;;13.10;;
24961;SDS011;12992;50.884;13.668;2022-08-25T01:25:03;20.13;;;13.65;;
24961;SDS011;12992;50.884;13.668;2022-08-25T01:27:37;18.27;;;12.63;;
24961;SDS011;12992;50.884;13.668;2022-08-25T01:30:02;15.68;;;12.23;;
24961;SDS011;12992;50.884;13.668;2022-08-25T01:32:31;15.95;;;12.23;;
24961;SDS011;12992;50.884;13.668;2022-08-25T01:34:57;18.55;;;13.70;;
24961;SDS011;12992;50.884;13.668;2022-08-25T01:37:22;17.90;;;13.00;;
24961;SDS011;12992;50.884;13.668;2022-08-25T01:39:48;16.52;;;12.23;;
24961;SDS011;12992;50.884;13.668;2022-08-25T01:45:02;22.33;;;12.90;;
24961;SDS011;12992;50.884;13.668;2022-08-25T01:47:28;16.65;;;12.65;;
24961;SDS011;12992;50.884;13.668;2022-08-25T01:49:53;18.25;;;13.10;;
24961;SDS011;12992;50.884;13.668;2022-08-25T01:54:48;18.52;;;13.15;;
24961;SDS011;12992;50.884;13.668;2022-08-25T01:57:14;16.88;;;12.75;;
24961;SDS011;12992;50.884;13.668;2022-08-25T01:59:39;19.98;;;13.55;;
24961;SDS011;12992;50.884;13.668;2022-08-25T02:02:05;23.10;;;13.48;;
24961;SDS011;12992;50.884;13.668;2022-08-25T02:04:30;19.23;;;11.88;;
24961;SDS011;12992;50.884;13.668;2022-08-25T02:06:57;19.52;;;13.52;;
24961;SDS011;12992;50.884;13.668;2022-08-25T02:09:23;18.17;;;12.85;;
24961;SDS011;12992;50.884;13.668;2022-08-25T02:11:49;15.88;;;12.80;;
24961;SDS011;12992;50.884;13.668;2022-08-25T02:14:15;19.15;;;12.90;;
24961;SDS011;12992;50.884;13.668;2022-08-25T02:16:44;17.52;;;11.63;;
24961;SDS011;12992;50.884;13.668;2022-08-25T02:19:12;15.57;;;11.63;;
24961;SDS011;12992;50.884;13.668;2022-08-25T02:21:38;18.00;;;13.60;;
24961;SDS011;12992;50.884;13.668;2022-08-25T02:24:04;21.70;;;13.43;;
24961;SDS011;12992;50.884;13.668;2022-08-25T02:26:30;17.67;;;13.55;;
24961;SDS011;12992;50.884;13.668;2022-08-25T02:28:56;20.17;;;12.52;;
24961;SDS011;12992;50.884;13.668;2022-08-25T02:31:22;15.45;;;12.30;;
24961;SDS011;12992;50.884;13.668;2022-08-25T02:33:49;14.77;;;11.88;;
24961;SDS011;12992;50.884;13.668;2022-08-25T02:36:15;15.98;;;11.30;;
24961;SDS011;12992;50.884;13.668;2022-08-25T02:38:41;19.15;;;12.23;;
24961;SDS011;12992;50.884;13.668;2022-08-25T02:41:08;15.60;;;11.57;;
24961;SDS011;12992;50.884;13.668;2022-08-25T02:43:36;15.85;;;11.40;;
24961;SDS011;12992;50.884;13.668;2022-08-25T02:46:03;19.48;;;12.77;;
24961;SDS011;12992;50.884;13.668;2022-08-25T02:48:28;24.42;;;14.95;;
24961;SDS011;12992;50.884;13.668;2022-08-25T02:50:54;22.77;;;14.48;;
24961;SDS011;12992;50.884;13.668;2022-08-25T02:53:25;21.17;;;13.65;;
24961;SDS011;12992;50.884;13.668;2022-08-25T02:55:51;25.88;;;15.07;;
24961;SDS011;12992;50.884;13.668;2022-08-25T02:58:16;17.80;;;13.82;;
24961;SDS011;12992;50.884;13.668;2022-08-25T03:00:42;21.08;;;13.63;;
24961;SDS011;12992;50.884;13.668;2022-08-25T03:03:07;20.63;;;13.57;;
24961;SDS011;12992;50.884;13.668;2022-08-25T03:05:33;22.33;;;14.45;;
24961;SDS011;12992;50.884;13.668;2022-08-25T03:07:58;21.17;;;13.32;;
24961;SDS011;12992;50.884;13.668;2022-08-25T03:10:24;19.63;;;13.20;;
24961;SDS011;12992;50.884;13.668;2022-08-25T03:12:49;17.45;;;13.77;;
24961;SDS011;12992;50.884;13.668;2022-08-25T03:15:15;21.60;;;14.93;;
24961;SDS011;12992;50.884;13.668;2022-08-25T03:17:42;17.67;;;13.48;;
24961;SDS011;12992;50.884;13.668;2022-08-25T03:20:08;23.08;;;14.60;;
24961;SDS011;12992;50.884;13.668;2022-08-25T03:22:34;21.60;;;13.77;;
24961;SDS011;12992;50.884;13.668;2022-08-25T03:25:00;19.42;;;14.63;;
24961;SDS011;12992;50.884;13.668;2022-08-25T03:27:44;20.25;;;14.55;;
24961;SDS011;12992;50.884;13.668;2022-08-25T03:30:10;20.20;;;15.23;;
24961;SDS011;12992;50.884;13.668;2022-08-25T03:32:35;21.70;;;13.95;;
24961;SDS011;12992;50.884;13.668;2022-08-25T03:35:01;16.88;;;13.18;;
24961;SDS011;12992;50.884;13.668;2022-08-25T03:37:27;22.38;;;15.77;;
24961;SDS011;12992;50.884;13.668;2022-08-25T03:39:53;26.67;;;16.45;;
24961;SDS011;12992;50.884;13.668;2022-08-25T03:42:18;20.20;;;14.90;;
24961;SDS011;12992;50.884;13.668;2022-08-25T03:44:43;21.58;;;16.05;;
24961;SDS011;12992;50.884;13.668;2022-08-25T03:47:09;20.80;;;16.08;;
24961;SDS011;12992;50.884;13.668;2022-08-25T03:49:34;23.77;;;15.35;;
24961;SDS011;12992;50.884;13.668;2022-08-25T03:51:59;24.63;;;15.70;;
24961;SDS011;12992;50.884;13.668;2022-08-25T03:54:25;18.92;;;14.23;;
24961;SDS011;12992;50.884;13.668;2022-08-25T03:56:51;20.63;;;14.82;;
24961;SDS011;12992;50.884;13.668;2022-08-25T03:59:17;24.75;;;15.05;;
24961;SDS011;12992;50.884;13.668;2022-08-25T04:01:43;19.63;;;14.30;;
24961;SDS011;12992;50.884;13.668;2022-08-25T04:04:10;22.08;;;16.58;;
24961;SDS011;12992;50.884;13.668;2022-08-25T04:06:37;21.27;;;15.88;;
24961;SDS011;12992;50.884;13.668;2022-08-25T04:09:03;23.75;;;16.83;;
24961;SDS011;12992;50.884;13.668;2022-08-25T04:11:28;23.95;;;17.67;;
24961;SDS011;12992;50.884;13.668;2022-08-25T04:13:55;23.40;;;16.80;;
24961;SDS011;12992;50.884;13.668;2022-08-25T04:16:22;26.27;;;18.58;;
24961;SDS011;12992;50.884;13.668;2022-08-25T04:18:51;20.70;;;15.40;;
24961;SDS011;12992;50.884;13.668;2022-08-25T04:21:18;21.20;;;16.55;;
24961;SDS011;12992;50.884;13.668;2022-08-25T04:23:45;23.70;;;16.67;;
24961;SDS011;12992;50.884;13.668;2022-08-25T04:26:14;26.42;;;17.80;;
24961;SDS011;12992;50.884;13.668;2022-08-25T04:28:43;23.30;;;17.13;;
24961;SDS011;12992;50.884;13.668;2022-08-25T04:31:08;24.90;;;17.50;;
24961;SDS011;12992;50.884;13.668;2022-08-25T04:33:36;22.52;;;15.95;;
24961;SDS011;12992;50.884;13.668;2022-08-25T04:36:03;30.35;;;17.45;;
24961;SDS011;12992;50.884;13.668;2022-08-25T04:38:30;23.67;;;17.00;;
24961;SDS011;12992;50.884;13.668;2022-08-25T04:41:00;24.55;;;17.75;;
24961;SDS011;12992;50.884;13.668;2022-08-25T04:43:28;26.17;;;18.60;;
24961;SDS011;12992;50.884;13.668;2022-08-25T04:45:55;26.02;;;18.15;;
24961;SDS011;12992;50.884;13.668;2022-08-25T04:48:21;21.83;;;17.00;;
24961;SDS011;12992;50.884;13.668;2022-08-25T04:50:46;22.38;;;17.55;;
24961;SDS011;12992;50.884;13.668;2022-08-25T04:53:12;25.30;;;17.33;;
24961;SDS011;12992;50.884;13.668;2022-08-25T04:55:41;26.90;;;18.27;;
24961;SDS011;12992;50.884;13.668;2022-08-25T04:58:08;22.52;;;17.77;;
24961;SDS011;12992;50.884;13.668;2022-08-25T05:00:34;28.17;;;18.05;;
24961;SDS011;12992;50.884;13.668;2022-08-25T05:03:01;25.88;;;18.08;;
24961;SDS011;12992;50.884;13.668;2022-08-25T05:05:26;28.58;;;17.13;;
24961;SDS011;12992;50.884;13.668;2022-08-25T05:07:52;28.60;;;18.13;;
24961;SDS011;12992;50.884;13.668;2022-08-25T05:10:18;29.00;;;18.63;;
24961;SDS011;12992;50.884;13.668;2022-08-25T05:12:44;25.33;;;17.77;;
24961;SDS011;12992;50.884;13.668;2022-08-25T05:15:09;23.92;;;17.45;;
24961;SDS011;12992;50.884;13.668;2022-08-25T05:17:53;25.17;;;18.02;;
24961;SDS011;12992;50.884;13.668;2022-08-25T05:20:18;27.05;;;17.73;;
24961;SDS011;12992;50.884;13.668;2022-08-25T05:22:44;25.17;;;17.52;;
24961;SDS011;12992;50.884;13.668;2022-08-25T05:25:10;23.75;;;16.98;;
24961;SDS011;12992;50.884;13.668;2022-08-25T05:27:36;25.30;;;17.83;;
24961;SDS011;12992;50.884;13.668;2022-08-25T05:30:01;27.55;;;19.75;;
24961;SDS011;12992;50.884;13.668;2022-08-25T05:32:26;26.35;;;18.80;;
24961;SDS011;12992;50.884;13.668;2022-08-25T05:34:51;23.77;;;18.92;;
24961;SDS011;12992;50.884;13.668;2022-08-25T05:37:17;23.08;;;17.80;;
24961;SDS011;12992;50.884;13.668;2022-08-25T05:39:42;27.08;;;18.10;;
24961;SDS011;12992;50.884;13.668;2022-08-25T05:42:07;25.38;;;19.48;;
24961;SDS011;12992;50.884;13.668;2022-08-25T05:44:33;25.95;;;18.73;;
24961;SDS011;12992;50.884;13.668;2022-08-25T05:46:58;24.15;;;17.05;;
24961;SDS011;12992;50.884;13.668;2022-08-25T05:49:23;27.30;;;18.08;;
24961;SDS011;12992;50.884;13.668;2022-08-25T05:51:49;24.95;;;17.38;;
24961;SDS011;12992;50.884;13.668;2022-08-25T05:54:14;27.77;;;17.52;;
24961;SDS011;12992;50.884;13.668;2022-08-25T05:56:39;23.08;;;17.30;;
24961;SDS011;12992;50.884;13.668;2022-08-25T05:59:05;27.63;;;17.77;;
24961;SDS011;12992;50.884;13.668;2022-08-25T06:01:30;27.50;;;18.55;;
24961;SDS011;12992;50.884;13.668;2022-08-25T06:04:14;23.63;;;16.30;;
24961;SDS011;12992;50.884;13.668;2022-08-25T06:06:41;21.45;;;17.00;;
24961;SDS011;12992;50.884;13.668;2022-08-25T06:09:07;20.02;;;16.20;;
24961;SDS011;12992;50.884;13.668;2022-08-25T06:11:35;25.17;;;17.48;;
24961;SDS011;12992;50.884;13.668;2022-08-25T06:14:01;21.95;;;16.88;;
24961;SDS011;12992;50.884;13.668;2022-08-25T06:16:26;21.77;;;16.17;;
24961;SDS011;12992;50.884;13.668;2022-08-25T06:18:51;21.83;;;16.05;;
24961;SDS011;12992;50.884;13.668;2022-08-25T06:21:17;25.92;;;16.77;;
24961;SDS011;12992;50.884;13.668;2022-08-25T06:23:43;20.40;;;16.52;;
24961;SDS011;12992;50.884;13.668;2022-08-25T06:26:11;25.08;;;17.75;;
24961;SDS011;12992;50.884;13.668;2022-08-25T06:28:37;28.08;;;19.00;;
24961;SDS011;12992;50.884;13.668;2022-08-25T06:31:03;32.65;;;20.10;;
24961;SDS011;12992;50.884;13.668;2022-08-25T06:33:28;25.88;;;18.42;;
24961;SDS011;12992;50.884;13.668;2022-08-25T06:35:54;20.27;;;16.75;;
24961;SDS011;12992;50.884;13.668;2022-08-25T06:38:20;21.92;;;16.48;;
24961;SDS011;12992;50.884;13.668;2022-08-25T06:40:46;20.65;;;16.33;;
24961;SDS011;12992;50.884;13.668;2022-08-25T06:43:12;25.45;;;17.50;;
24961;SDS011;12992;50.884;13.668;2022-08-25T06:45:37;24.13;;;18.02;;
24961;SDS011;12992;50.884;13.668;2022-08-25T06:48:02;24.40;;;18.75;;
24961;SDS011;12992;50.884;13.668;2022-08-25T06:50:28;21.95;;;17.48;;
24961;SDS011;12992;50.884;13.668;2022-08-25T06:52:53;27.60;;;17.58;;
24961;SDS011;12992;50.884;13.668;2022-08-25T06:55:18;25.45;;;17.58;;
24961;SDS011;12992;50.884;13.668;2022-08-25T06:57:44;25.55;;;17.08;;
24961;SDS011;12992;50.884;13.668;2022-08-25T07:00:09;28.45;;;17.55;;
24961;SDS011;12992;50.884;13.668;2022-08-25T07:02:35;26.65;;;17.02;;
24961;SDS011;12992;50.884;13.668;2022-08-25T07:05:02;25.65;;;16.30;;
24961;SDS011;12992;50.884;13.668;2022-08-25T07:07:28;27.65;;;17.20;;
24961;SDS011;12992;50.884;13.668;2022-08-25T07:09:54;30.40;;;17.10;;
24961;SDS011;12992;50.884;13.668;2022-08-25T07:12:19;27.80;;;17.55;;
24961;SDS011;12992;50.884;13.668;2022-08-25T07:14:45;30.98;;;17.45;;
24961;SDS011;12992;50.884;13.668;2022-08-25T07:17:10;29.73;;;17.42;;
24961;SDS011;12992;50.884;13.668;2022-08-25T07:19:35;31.35;;;17.10;;
24961;SDS011;12992;50.884;13.668;2022-08-25T07:22:01;25.77;;;16.90;;
24961;SDS011;12992;50.884;13.668;2022-08-25T07:24:26;29.20;;;17.38;;
24961;SDS011;12992;50.884;13.668;2022-08-25T07:26:52;22.35;;;15.93;;
24961;SDS011;12992;50.884;13.668;2022-08-25T07:31:45;21.92;;;15.85;;
24961;SDS011;12992;50.884;13.668;2022-08-25T07:34:11;29.05;;;15.93;;
24961;SDS011;12992;50.884;13.668;2022-08-25T07:37:02;26.13;;;16.98;;
24961;SDS011;12992;50.884;13.668;2022-08-25T07:39:28;25.15;;;15.73;;
24961;SDS011;12992;50.884;13.668;2022-08-25T07:41:55;28.80;;;15.98;;
24961;SDS011;12992;50.884;13.668;2022-08-25T07:44:21;27.17;;;15.88;;
24961;SDS011;12992;50.884;13.668;2022-08-25T07:46:47;25.90;;;16.90;;
24961;SDS011;12992;50.884;13.668;2022-08-25T07:49:13;30.92;;;14.45;;
24961;SDS011;12992;50.884;13.668;2022-08-25T07:51:39;28.30;;;15.85;;
24961;SDS011;12992;50.884;13.668;2022-08-25T07:54:05;25.88;;;15.70;;
24961;SDS011;12992;50.884;13.668;2022-08-25T07:56:30;30.35;;;15.50;;
24961;SDS011;12992;50.884;13.668;2022-08-25T07:58:55;31.95;;;15.68;;
24961;SDS011;12992;50.884;13.668;2022-08-25T08:01:21;28.80;;;14.20;;
24961;SDS011;12992;50.884;13.668;2022-08-25T08:03:48;24.15;;;14.52;;
24961;SDS011;12992;50.884;13.668;2022-08-25T08:06:16;25.08;;;13.93;;
24961;SDS011;12992;50.884;13.668;2022-08-25T08:08:44;24.75;;;13.70;;
24961;SDS011;12992;50.884;13.668;2022-08-25T08:11:31;25.90;;;12.45;;
24961;SDS011;12992;50.884;13.668;2022-08-25T08:13:59;21.85;;;12.18;;
24961;SDS011;12992;50.884;13.668;2022-08-25T08:16:26;21.40;;;11.25;;
24961;SDS011;12992;50.884;13.668;2022-08-25T08:18:54;22.15;;;12.15;;
24961;SDS011;12992;50.884;13.668;2022-08-25T08:21:21;20.55;;;11.93;;
24961;SDS011;12992;50.884;13.668;2022-08-25T08:23:48;26.55;;;12.48;;
24961;SDS011;12992;50.884;13.668;2022-08-25T08:26:15;19.60;;;11.55;;
24961;SDS011;12992;50.884;13.668;2022-08-25T08:28:41;23.42;;;10.82;;
24961;SDS011;12992;50.884;13.668;2022-08-25T08:31:07;16.45;;;9.48;;
24961;SDS011;12992;50.884;13.668;2022-08-25T08:33:33;20.08;;;9.32;;
24961;SDS011;12992;50.884;13.668;2022-08-25T08:35:59;18.50;;;9.70;;
24961;SDS011;12992;50.884;13.668;2022-08-25T08:38:27;16.55;;;9.52;;
24961;SDS011;12992;50.884;13.668;2022-08-25T08:43:52;20.90;;;9.23;;
24961;SDS011;12992;50.884;13.668;2022-08-25T08:46:24;15.88;;;9.55;;
24961;SDS011;12992;50.884;13.668;2022-08-25T08:49:03;22.13;;;10.23;;
24961;SDS011;12992;50.884;13.668;2022-08-25T08:51:34;16.05;;;9.07;;
24961;SDS011;12992;50.884;13.668;2022-08-25T08:54:15;13.43;;;8.93;;
24961;SDS011;12992;50.884;13.668;2022-08-25T08:56:46;13.88;;;8.25;;
24961;SDS011;12992;50.884;13.668;2022-08-25T08:59:25;13.40;;;8.32;;
24961;SDS011;12992;50.884;13.668;2022-08-25T09:01:56;19.63;;;8.90;;
24961;SDS011;12992;50.884;13.668;2022-08-25T09:04:37;17.05;;;8.27;;
24961;SDS011;12992;50.884;13.668;2022-08-25T09:07:21;13.48;;;8.32;;
24961;SDS011;12992;50.884;13.668;2022-08-25T09:09:51;15.50;;;8.05;;
24961;SDS011;12992;50.884;13.668;2022-08-25T09:15:08;15.75;;;7.53;;
24961;SDS011;12992;50.884;13.668;2022-08-25T09:23:26;18.77;;;7.50;;
24961;SDS011;12992;50.884;13.668;2022-08-25T09:26:13;16.35;;;7.03;;
24961;SDS011;12992;50.884;13.668;2022-08-25T09:28:47;17.33;;;8.48;;
24961;SDS011;12992;50.884;13.668;2022-08-25T09:31:16;15.18;;;8.40;;
24961;SDS011;12992;50.884;13.668;2022-08-25T09:33:46;17.85;;;8.05;;
24961;SDS011;12992;50.884;13.668;2022-08-25T09:36:12;16.23;;;7.80;;
24961;SDS011;12992;50.884;13.668;2022-08-25T09:38:38;16.58;;;7.95;;
24961;SDS011;12992;50.884;13.668;2022-08-25T09:41:04;13.60;;;7.35;;
24961;SDS011;12992;50.884;13.668;2022-08-25T09:43:32;17.02;;;8.10;;
24961;SDS011;12992;50.884;13.668;2022-08-25T09:51:20;14.50;;;8.68;;
24961;SDS011;12992;50.884;13.668;2022-08-25T09:53:57;15.48;;;8.20;;
24961;SDS011;12992;50.884;13.668;2022-08-25T09:56:27;15.30;;;7.22;;
24961;SDS011;12992;50.884;13.668;2022-08-25T09:58:56;14.55;;;7.93;;
24961;SDS011;12992;50.884;13.668;2022-08-25T10:01:54;22.02;;;8.43;;
24961;SDS011;12992;50.884;13.668;2022-08-25T10:04:28;22.45;;;7.82;;
24961;SDS011;12992;50.884;13.668;2022-08-25T10:06:59;17.98;;;8.30;;
24961;SDS011;12992;50.884;13.668;2022-08-25T10:09:33;20.85;;;7.65;;
24961;SDS011;12992;50.884;13.668;2022-08-25T10:12:14;22.35;;;7.97;;
24961;SDS011;12992;50.884;13.668;2022-08-25T10:14:42;14.77;;;7.65;;
24961;SDS011;12992;50.884;13.668;2022-08-25T10:19:52;17.27;;;8.55;;
24961;SDS011;12992;50.884;13.668;2022-08-25T10:22:36;21.48;;;8.13;;
24961;SDS011;12992;50.884;13.668;2022-08-25T10:25:03;19.02;;;7.82;;
24961;SDS011;12992;50.884;13.668;2022-08-25T10:30:30;19.63;;;6.80;;
24961;SDS011;12992;50.884;13.668;2022-08-25T10:33:09;15.02;;;6.78;;
24961;SDS011;12992;50.884;13.668;2022-08-25T10:35:58;22.23;;;6.90;;
24961;SDS011;12992;50.884;13.668;2022-08-25T10:49:55;22.30;;;7.20;;
24961;SDS011;12992;50.884;13.668;2022-08-25T10:52:31;15.55;;;6.93;;
24961;SDS011;12992;50.884;13.668;2022-08-25T10:55:16;17.13;;;6.70;;
24961;SDS011;12992;50.884;13.668;2022-08-25T10:57:58;22.02;;;7.25;;
24961;SDS011;12992;50.884;13.668;2022-08-25T11:00:37;21.20;;;6.95;;
24961;SDS011;12992;50.884;13.668;2022-08-25T11:03:23;23.60;;;7.20;;
24961;SDS011;12992;50.884;13.668;2022-08-25T11:06:16;22.35;;;7.82;;
24961;SDS011;12992;50.884;13.668;2022-08-25T11:08:56;19.77;;;7.45;;
24961;SDS011;12992;50.884;13.668;2022-08-25T11:11:29;19.70;;;6.97;;
24961;SDS011;12992;50.884;13.668;2022-08-25T11:13:58;20.40;;;7.63;;
24961;SDS011;12992;50.884;13.668;2022-08-25T11:19:35;26.50;;;6.70;;
24961;SDS011;12992;50.884;13.668;2022-08-25T11:24:57;22.17;;;5.93;;
24961;SDS011;12992;50.884;13.668;2022-08-25T11:27:49;12.70;;;5.57;;
24961;SDS011;12992;50.884;13.668;2022-08-25T11:30:17;16.42;;;6.00;;
24961;SDS011;12992;50.884;13.668;2022-08-25T11:32:44;19.02;;;5.80;;
24961;SDS011;12992;50.884;13.668;2022-08-25T11:35:12;26.10;;;6.47;;
24961;SDS011;12992;50.884;13.668;2022-08-25T11:38:29;19.92;;;5.57;;
24961;SDS011;12992;50.884;13.668;2022-08-25T11:49:03;16.67;;;7.32;;
24961;SDS011;12992;50.884;13.668;2022-08-25T11:51:46;18.52;;;7.05;;
24961;SDS011;12992;50.884;13.668;2022-08-25T11:54:21;16.75;;;6.75;;
24961;SDS011;12992;50.884;13.668;2022-08-25T11:56:52;19.33;;;6.90;;
24961;SDS011;12992;50.884;13.668;2022-08-25T12:10:13;27.13;;;8.07;;
24961;SDS011;12992;50.884;13.668;2022-08-25T12:13:02;21.05;;;6.70;;
24961;SDS011;12992;50.884;13.668;2022-08-25T12:18:11;18.70;;;6.43;;
24961;SDS011;12992;50.884;13.668;2022-08-25T12:23:37;14.33;;;5.67;;
24961;SDS011;12992;50.884;13.668;2022-08-25T12:26:10;21.25;;;5.70;;
24961;SDS011;12992;50.884;13.668;2022-08-25T12:28:46;16.95;;;5.50;;
24961;SDS011;12992;50.884;13.668;2022-08-25T12:31:25;19.50;;;6.32;;
24961;SDS011;12992;50.884;13.668;2022-08-25T12:34:15;20.30;;;5.63;;
24961;SDS011;12992;50.884;13.668;2022-08-25T12:37:12;17.35;;;5.82;;
24961;SDS011;12992;50.884;13.668;2022-08-25T12:39:44;20.92;;;5.47;;
24961;SDS011;12992;50.884;13.668;2022-08-25T12:44:47;23.08;;;5.75;;
24961;SDS011;12992;50.884;13.668;2022-08-25T12:47:33;18.20;;;5.82;;
24961;SDS011;12992;50.884;13.668;2022-08-25T12:53:06;24.17;;;6.05;;
24961;SDS011;12992;50.884;13.668;2022-08-25T12:55:36;16.13;;;5.38;;
24961;SDS011;12992;50.884;13.668;2022-08-25T12:58:04;21.67;;;5.25;;
24961;SDS011;12992;50.884;13.668;2022-08-25T13:06:16;17.85;;;4.93;;
24961;SDS011;12992;50.884;13.668;2022-08-25T13:12:05;25.80;;;5.80;;
24961;SDS011;12992;50.884;13.668;2022-08-25T13:14:45;29.65;;;5.57;;
24961;SDS011;12992;50.884;13.668;2022-08-25T13:17:28;18.83;;;5.45;;
24961;SDS011;12992;50.884;13.668;2022-08-25T13:22:45;27.55;;;6.07;;
24961;SDS011;12992;50.884;13.668;2022-08-25T13:25:14;21.38;;;6.43;;
24961;SDS011;12992;50.884;13.668;2022-08-25T13:27:41;19.33;;;5.80;;
24961;SDS011;12992;50.884;13.668;2022-08-25T13:30:28;16.48;;;5.18;;
24961;SDS011;12992;50.884;13.668;2022-08-25T13:32:58;16.05;;;5.43;;
24961;SDS011;12992;50.884;13.668;2022-08-25T13:35:25;16.30;;;5.15;;
24961;SDS011;12992;50.884;13.668;2022-08-25T13:37:53;26.27;;;5.97;;
24961;SDS011;12992;50.884;13.668;2022-08-25T13:40:26;14.02;;;5.40;;
24961;SDS011;12992;50.884;13.668;2022-08-25T13:43:00;19.25;;;5.60;;
24961;SDS011;12992;50.884;13.668;2022-08-25T13:45:29;18.92;;;5.70;;
24961;SDS011;12992;50.884;13.668;2022-08-25T13:48:00;20.05;;;5.60;;
24961;SDS011;12992;50.884;13.668;2022-08-25T13:52:56;29.00;;;5.97;;
24961;SDS011;12992;50.884;13.668;2022-08-25T13:55:32;33.42;;;7.10;;
24961;SDS011;12992;50.884;13.668;2022-08-25T13:58:01;20.60;;;6.07;;
24961;SDS011;12992;50.884;13.668;2022-08-25T14:00:33;24.88;;;6.13;;
24961;SDS011;12992;50.884;13.668;2022-08-25T14:03:05;18.75;;;6.07;;
24961;SDS011;12992;50.884;13.668;2022-08-25T14:05:38;26.35;;;6.35;;
24961;SDS011;12992;50.884;13.668;2022-08-25T14:08:07;21.42;;;6.07;;
24961;SDS011;12992;50.884;13.668;2022-08-25T14:11:01;26.00;;;6.38;;
24961;SDS011;12992;50.884;13.668;2022-08-25T14:13:32;23.08;;;6.18;;
24961;SDS011;12992;50.884;13.668;2022-08-25T14:16:08;20.60;;;6.07;;
24961;SDS011;12992;50.884;13.668;2022-08-25T14:18:37;22.08;;;5.70;;
24961;SDS011;12992;50.884;13.668;2022-08-25T14:21:09;23.30;;;6.30;;
24961;SDS011;12992;50.884;13.668;2022-08-25T14:23:35;22.38;;;6.22;;
24961;SDS011;12992;50.884;13.668;2022-08-25T14:26:02;21.33;;;6.28;;
24961;SDS011;12992;50.884;13.668;2022-08-25T14:28:28;23.52;;;6.25;;
24961;SDS011;12992;50.884;13.668;2022-08-25T14:31:18;23.90;;;5.82;;
24961;SDS011;12992;50.884;13.668;2022-08-25T14:33:52;26.15;;;5.68;;
24961;SDS011;12992;50.884;13.668;2022-08-25T14:36:27;14.07;;;6.40;;
24961;SDS011;12992;50.884;13.668;2022-08-25T14:38:54;23.00;;;7.18;;
24961;SDS011;12992;50.884;13.668;2022-08-25T14:41:20;21.15;;;6.07;;
24961;SDS011;12992;50.884;13.668;2022-08-25T14:43:47;22.52;;;6.05;;
24961;SDS011;12992;50.884;13.668;2022-08-25T14:46:23;27.38;;;6.68;;
24961;SDS011;12992;50.884;13.668;2022-08-25T14:48:52;21.13;;;5.75;;
24961;SDS011;12992;50.884;13.668;2022-08-25T14:51:21;24.10;;;6.47;;
24961;SDS011;12992;50.884;13.668;2022-08-25T14:53:47;17.05;;;6.30;;
24961;SDS011;12992;50.884;13.668;2022-08-25T14:56:13;23.52;;;6.40;;
24961;SDS011;12992;50.884;13.668;2022-08-25T14:58:39;17.30;;;5.90;;
24961;SDS011;12992;50.884;13.668;2022-08-25T15:01:05;21.92;;;6.25;;
24961;SDS011;12992;50.884;13.668;2022-08-25T15:03:33;27.52;;;6.72;;
24961;SDS011;12992;50.884;13.668;2022-08-25T15:06:01;16.80;;;5.90;;
24961;SDS011;12992;50.884;13.668;2022-08-25T15:08:27;25.05;;;6.78;;
24961;SDS011;12992;50.884;13.668;2022-08-25T15:11:11;32.33;;;6.53;;
24961;SDS011;12992;50.884;13.668;2022-08-25T15:13:38;20.35;;;6.10;;
24961;SDS011;12992;50.884;13.668;2022-08-25T15:16:04;24.52;;;6.45;;
24961;SDS011;12992;50.884;13.668;2022-08-25T15:18:30;20.48;;;6.20;;
24961;SDS011;12992;50.884;13.668;2022-08-25T15:20:55;27.17;;;6.30;;
24961;SDS011;12992;50.884;13.668;2022-08-25T15:23:21;25.45;;;6.40;;
24961;SDS011;12992;50.884;13.668;2022-08-25T15:25:46;20.33;;;5.68;;
24961;SDS011;12992;50.884;13.668;2022-08-25T15:28:14;22.50;;;6.55;;
24961;SDS011;12992;50.884;13.668;2022-08-25T15:30:40;31.05;;;6.72;;
24961;SDS011;12992;50.884;13.668;2022-08-25T15:33:06;31.17;;;6.75;;
24961;SDS011;12992;50.884;13.668;2022-08-25T15:35:32;18.85;;;6.95;;
24961;SDS011;12992;50.884;13.668;2022-08-25T15:37:58;24.50;;;6.57;;
24961;SDS011;12992;50.884;13.668;2022-08-25T15:40:23;20.17;;;5.88;;
24961;SDS011;12992;50.884;13.668;2022-08-25T15:42:49;23.52;;;7.10;;
24961;SDS011;12992;50.884;13.668;2022-08-25T15:45:15;24.48;;;6.25;;
24961;SDS011;12992;50.884;13.668;2022-08-25T15:47:40;27.17;;;6.50;;
24961;SDS011;12992;50.884;13.668;2022-08-25T15:50:07;25.48;;;5.93;;
24961;SDS011;12992;50.884;13.668;2022-08-25T15:52:35;23.30;;;6.13;;
24961;SDS011;12992;50.884;13.668;2022-08-25T15:55:01;25.27;;;5.63;;
24961;SDS011;12992;50.884;13.668;2022-08-25T15:57:27;22.90;;;5.65;;